createdAt,value
2022-08-17T00:00:43.099Z,1002.42
2022-08-17T00:03:23.079Z,1002.35
2022-08-17T00:06:30.917Z,1002.39
2022-08-17T00:09:38.490Z,1002.39
2022-08-17T00:12:46.834Z,1002.37
2022-08-17T00:15:54.703Z,1002.38
2022-08-17T00:19:08.309Z,1002.41
2022-08-17T00:22:34.430Z,1002.39
2022-08-17T00:25:11.123Z,1002.43
2022-08-17T00:28:19.337Z,1002.37
2022-08-17T00:31:28.858Z,1002.39
2022-08-17T00:34:36.309Z,1002.41
2022-08-17T00:37:44.587Z,1002.36
2022-08-17T00:40:55.996Z,1002.43
2022-08-17T00:43:55.960Z,1002.42
2022-08-17T00:47:04.610Z,1002.41
2022-08-17T00:50:13.755Z,1002.38
2022-08-17T00:53:21.561Z,1002.42
2022-08-17T00:56:31.016Z,1002.40
2022-08-17T00:59:38.594Z,1002.38
2022-08-17T01:02:46.447Z,1002.43
2022-08-17T01:05:54.527Z,1002.36
2022-08-17T01:09:02.891Z,1002.42
2022-08-17T01:12:10.848Z,1002.34
2022-08-17T01:15:18.580Z,1002.40
2022-08-17T01:18:26.724Z,1002.39
2022-08-17T01:21:34.495Z,1002.33
2022-08-17T01:24:42.252Z,1002.39
2022-08-17T01:27:50.314Z,1002.34
2022-08-17T01:30:59.540Z,1002.35
2022-08-17T01:34:07.996Z,1002.41
2022-08-17T01:37:16.319Z,1002.40
2022-08-17T01:40:23.925Z,1002.37
2022-08-17T01:43:32.146Z,1002.39
2022-08-17T01:46:40.418Z,1002.35
2022-08-17T01:49:47.904Z,1002.37
2022-08-17T01:52:56.082Z,1002.37
2022-08-17T01:56:03.886Z,1002.32
2022-08-17T01:59:11.904Z,1002.32
2022-08-17T02:02:30.638Z,1002.40
2022-08-17T02:05:25.499Z,1002.36
2022-08-17T02:08:39.547Z,1002.31
2022-08-17T02:11:38.439Z,1002.29
2022-08-17T02:14:46.214Z,1002.32
2022-08-17T02:17:54.705Z,1002.27
2022-08-17T02:21:03.080Z,1002.37
2022-08-17T02:24:10.905Z,1002.42
2022-08-17T02:27:18.923Z,1002.36
2022-08-17T02:31:02.094Z,1002.38
2022-08-17T02:33:42.128Z,1002.32
2022-08-17T02:36:37.848Z,1002.36
2022-08-17T02:39:45.360Z,1002.34
2022-08-17T02:42:53.199Z,1002.35
2022-08-17T02:46:01.078Z,1002.34
2022-08-17T02:49:09.363Z,1002.27
2022-08-17T02:52:17.071Z,1002.28
2022-08-17T02:55:22.370Z,1002.24
2022-08-17T02:58:35.075Z,1002.26
2022-08-17T03:01:33.258Z,1002.31
2022-08-17T03:04:41.156Z,1002.31
2022-08-17T03:07:49.305Z,1002.30
2022-08-17T03:10:56.686Z,1002.32
2022-08-17T03:14:04.827Z,1002.29
2022-08-17T03:17:17.182Z,1002.24
2022-08-17T03:20:14.177Z,1002.23
2022-08-17T03:23:23.974Z,1002.27
2022-08-17T03:26:33.431Z,1002.30
2022-08-17T03:29:40.953Z,1002.26
2022-08-17T03:32:48.950Z,1002.32
2022-08-17T03:35:56.400Z,1002.26
2022-08-17T03:39:04.666Z,1002.24
2022-08-17T03:42:14.326Z,1002.27
2022-08-17T03:45:17.767Z,1002.27
2022-08-17T03:48:26.101Z,1002.20
2022-08-17T03:51:34.410Z,1002.29
2022-08-17T03:54:41.750Z,1002.25
2022-08-17T03:57:49.971Z,1002.29
2022-08-17T04:00:57.844Z,1002.32
2022-08-17T04:04:05.572Z,1002.31
2022-08-17T04:07:13.422Z,1002.29
2022-08-17T04:10:25.944Z,1002.22
2022-08-17T04:13:24.770Z,1002.34
2022-08-17T04:16:32.997Z,1002.28
2022-08-17T04:19:41.317Z,1002.29
2022-08-17T04:22:49.281Z,1002.32
2022-08-17T04:25:59.382Z,1002.35
2022-08-17T04:29:07.350Z,1002.39
2022-08-17T04:32:14.841Z,1002.28
2022-08-17T04:35:23.178Z,1002.30
2022-08-17T04:38:31.277Z,1002.38
2022-08-17T04:41:38.575Z,1002.37
2022-08-17T04:44:40.486Z,1002.39
2022-08-17T04:47:47.836Z,1002.43
2022-08-17T04:50:55.817Z,1002.50
2022-08-17T04:54:03.888Z,1002.53
2022-08-17T04:57:11.268Z,1002.51
2022-08-17T05:00:19.463Z,1002.55
2022-08-17T05:03:27.229Z,1002.58
2022-08-17T05:06:34.973Z,1002.54
2022-08-17T05:09:42.904Z,1002.56
2022-08-17T05:12:50.765Z,1002.62
2022-08-17T05:15:58.468Z,1002.66
2022-08-17T05:19:06.945Z,1002.62
2022-08-17T05:22:14.766Z,1002.59
2022-08-17T05:25:25.643Z,1002.58
2022-08-17T05:28:26.603Z,1002.61
2022-08-17T05:31:24.571Z,1002.61
2022-08-17T05:34:32.449Z,1002.66
2022-08-17T05:37:40.273Z,1002.77
2022-08-17T05:40:48.125Z,1002.68
2022-08-17T05:43:56.567Z,1002.72
2022-08-17T05:47:04.356Z,1002.71
2022-08-17T05:50:12.376Z,1002.74
2022-08-17T05:53:15.079Z,1002.84
2022-08-17T05:56:29.765Z,1002.77
2022-08-17T05:59:27.640Z,1002.79
2022-08-17T06:02:35.071Z,1002.84
2022-08-17T06:05:43.302Z,1002.81
2022-08-17T06:08:51.434Z,1002.85
2022-08-17T06:11:59.592Z,1002.81
2022-08-17T06:15:08.047Z,1002.76
2022-08-17T06:18:18.990Z,1002.74
2022-08-17T06:21:16.506Z,1002.77
2022-08-17T06:24:24.595Z,1002.82
2022-08-17T06:27:31.961Z,1002.76
2022-08-17T06:30:59.251Z,1002.80
2022-08-17T06:33:45.223Z,1002.75
2022-08-17T06:36:53.072Z,1002.77
2022-08-17T06:40:02.053Z,1002.70
2022-08-17T06:43:10.205Z,1002.64
2022-08-17T06:46:18.326Z,1002.73
2022-08-17T06:49:26.200Z,1002.69
2022-08-17T06:52:45.584Z,1002.64
2022-08-17T06:55:39.811Z,1002.63
2022-08-17T06:58:47.402Z,1002.64
2022-08-17T07:01:55.573Z,1002.64
2022-08-17T07:05:03.214Z,1002.59
2022-08-17T07:08:11.384Z,1002.60
2022-08-17T07:11:19.516Z,1002.61
2022-08-17T07:14:26.868Z,1002.66
2022-08-17T07:17:46.934Z,1002.69
2022-08-17T07:20:39.680Z,1002.61
2022-08-17T07:23:47.842Z,1002.65
2022-08-17T07:26:56.182Z,1002.63
2022-08-17T07:30:06.851Z,1002.59
2022-08-17T07:33:07.615Z,1002.60
2022-08-17T07:36:09.945Z,1002.64
2022-08-17T07:39:17.756Z,1002.58
2022-08-17T07:42:25.388Z,1002.59
2022-08-17T07:45:33.098Z,1002.62
2022-08-17T07:48:41.290Z,1002.66
2022-08-17T07:51:48.924Z,1002.66
2022-08-17T07:54:56.753Z,1002.56
2022-08-17T07:58:04.445Z,1002.59
2022-08-17T08:01:11.856Z,1002.58
2022-08-17T08:04:49.680Z,1002.57
2022-08-17T08:07:27.069Z,1002.65
2022-08-17T08:10:34.491Z,1002.66
2022-08-17T08:13:42.896Z,1002.68
2022-08-17T08:16:50.207Z,1002.58
2022-08-17T08:19:58.243Z,1002.72
2022-08-17T08:23:06.367Z,1002.74
2022-08-17T08:26:17.975Z,1002.71
2022-08-17T08:29:15.964Z,1002.75
2022-08-17T08:32:25.011Z,1002.81
2022-08-17T08:35:32.609Z,1002.77
2022-08-17T08:38:40.907Z,1002.81
2022-08-17T08:41:48.721Z,1002.80
2022-08-17T08:45:00.923Z,1002.75
2022-08-17T08:48:05.282Z,1002.82
2022-08-17T08:51:02.723Z,1002.75
2022-08-17T08:54:10.379Z,1002.75
2022-08-17T08:57:32.843Z,1002.74
2022-08-17T09:00:23.687Z,1002.72
2022-08-17T09:03:51.754Z,1002.72
2022-08-17T09:06:39.301Z,1002.67
2022-08-17T09:09:37.582Z,1002.73
2022-08-17T09:12:45.973Z,1002.67
2022-08-17T09:15:54.976Z,1002.62
2022-08-17T09:19:04.720Z,1002.53
2022-08-17T09:22:13.168Z,1002.55
2022-08-17T09:25:21.890Z,1002.55
2022-08-17T09:28:30.134Z,1002.56
2022-08-17T09:31:47.093Z,1002.58
2022-08-17T09:34:47.028Z,1002.54
2022-08-17T09:37:45.507Z,1002.51
2022-08-17T09:40:53.767Z,1002.47
2022-08-17T09:44:01.577Z,1002.49
2022-08-17T09:47:09.609Z,1002.40
2022-08-17T09:50:17.452Z,1002.39
2022-08-17T09:53:25.669Z,1002.40
2022-08-17T09:56:33.617Z,1002.29
2022-08-17T09:59:41.878Z,1002.34
2022-08-17T10:02:49.839Z,1002.28
2022-08-17T10:05:57.868Z,1002.31
2022-08-17T10:09:06.117Z,1002.32
2022-08-17T10:12:13.622Z,1002.29
2022-08-17T10:15:14.922Z,1002.30
2022-08-17T10:18:25.570Z,1002.28
2022-08-17T10:21:29.251Z,1002.18
2022-08-17T10:24:37.115Z,1002.16
2022-08-17T10:27:44.899Z,1002.15
2022-08-17T10:31:05.297Z,1002.09
2022-08-17T10:33:58.411Z,1002.14
2022-08-17T10:37:06.302Z,1002.13
2022-08-17T10:40:14.149Z,1002.05
2022-08-17T10:43:22.144Z,1002.05
2022-08-17T10:46:31.168Z,1002.06
2022-08-17T10:49:28.038Z,1002.03
2022-08-17T10:52:36.358Z,1002.03
2022-08-17T10:55:44.507Z,1002.00
2022-08-17T10:58:53.503Z,1001.92
2022-08-17T11:02:02.013Z,1001.88
2022-08-17T11:05:10.324Z,1001.94
2022-08-17T11:08:18.485Z,1001.90
2022-08-17T11:11:27.786Z,1001.91
2022-08-17T11:14:36.329Z,1001.99
2022-08-17T11:17:44.780Z,1001.93
2022-08-17T11:20:52.677Z,1001.97
2022-08-17T11:24:00.961Z,1001.96
2022-08-17T11:27:08.764Z,1001.88
2022-08-17T11:30:09.814Z,1001.83
2022-08-17T11:33:17.716Z,1001.75
2022-08-17T11:36:19.207Z,1001.74
2022-08-17T11:39:27.782Z,1001.76
2022-08-17T11:42:35.131Z,1001.74
2022-08-17T11:45:43.409Z,1001.72
2022-08-17T11:48:50.805Z,1001.67
2022-08-17T11:51:59.054Z,1001.62
2022-08-17T11:55:33.546Z,1001.53
2022-08-17T11:58:12.457Z,1001.55
2022-08-17T12:01:20.750Z,1001.51
2022-08-17T12:04:28.293Z,1001.48
2022-08-17T12:07:36.668Z,1001.55
2022-08-17T12:10:45.082Z,1001.49
2022-08-17T12:13:52.605Z,1001.44
2022-08-17T12:17:01.035Z,1001.48
2022-08-17T12:20:08.934Z,1001.52
2022-08-17T12:23:16.619Z,1001.49
2022-08-17T12:26:24.929Z,1001.46
2022-08-17T12:29:38.793Z,1001.49
2022-08-17T12:32:36.717Z,1001.44
2022-08-17T12:35:45.085Z,1001.37
2022-08-17T12:38:53.465Z,1001.36
2022-08-17T12:42:02.874Z,1001.33
2022-08-17T12:45:11.857Z,1001.33
2022-08-17T12:48:19.931Z,1001.26
2022-08-17T12:51:28.162Z,1001.19
2022-08-17T12:54:36.520Z,1001.11
2022-08-17T12:57:44.662Z,1001.12
2022-08-17T13:00:53.503Z,1001.19
2022-08-17T13:04:01.151Z,1001.25
2022-08-17T13:07:10.168Z,1001.17
2022-08-17T13:10:18.400Z,1001.11
2022-08-17T13:13:26.712Z,1001.10
2022-08-17T13:16:34.903Z,1001.09
2022-08-17T13:19:43.214Z,1001.04
2022-08-17T13:22:51.689Z,1000.99
2022-08-17T13:26:00.557Z,1000.90
2022-08-17T13:29:08.890Z,1000.93
2022-08-17T13:32:19.984Z,1000.92
2022-08-17T13:35:38.878Z,1000.93
2022-08-17T13:38:34.115Z,1000.92
2022-08-17T13:41:42.575Z,1000.87
2022-08-17T13:44:50.358Z,1000.86
2022-08-17T13:47:58.888Z,1000.83
2022-08-17T13:51:07.168Z,1000.87
2022-08-17T13:54:15.714Z,1000.84
2022-08-17T13:57:24.643Z,1000.88
2022-08-17T14:00:33.015Z,1000.90
2022-08-17T14:03:41.303Z,1000.91
2022-08-17T14:06:53.252Z,1000.94
2022-08-17T14:09:47.408Z,1000.87
2022-08-17T14:12:55.678Z,1000.85
2022-08-17T14:16:04.359Z,1000.85
2022-08-17T14:19:12.163Z,1000.85
2022-08-17T14:22:21.004Z,1000.85
2022-08-17T14:25:28.766Z,1000.92
2022-08-17T14:28:37.356Z,1000.85
2022-08-17T14:31:40.419Z,1000.81
2022-08-17T14:34:50.638Z,1000.87
2022-08-17T14:37:59.442Z,1000.83
2022-08-17T14:41:07.611Z,1000.83
2022-08-17T14:44:15.853Z,1000.81
2022-08-17T14:47:24.175Z,1000.82
2022-08-17T14:50:35.466Z,1000.78
2022-08-17T14:53:33.388Z,1000.75
2022-08-17T14:56:42.246Z,1000.70
2022-08-17T14:59:42.308Z,1000.71
2022-08-17T15:02:51.002Z,1000.65
2022-08-17T15:05:58.924Z,1000.64
2022-08-17T15:09:07.608Z,1000.65
2022-08-17T15:12:15.919Z,1000.62
2022-08-17T15:15:24.136Z,1000.63
2022-08-17T15:18:32.960Z,1000.59
2022-08-17T15:21:41.213Z,1000.54
2022-08-17T15:24:49.481Z,1000.48
2022-08-17T15:27:57.915Z,1000.52
2022-08-17T15:31:06.230Z,1000.46
2022-08-17T15:34:14.527Z,1000.59
2022-08-17T15:37:23.539Z,1000.62
2022-08-17T15:40:31.972Z,1000.65
2022-08-17T15:43:34.054Z,1000.66
2022-08-17T15:46:42.964Z,1000.74
2022-08-17T15:49:51.227Z,1000.77
2022-08-17T15:53:00.667Z,1000.70
2022-08-17T15:56:08.351Z,1000.77
2022-08-17T15:59:17.048Z,1000.79
2022-08-17T16:03:22.921Z,1000.75
2022-08-17T16:05:31.361Z,1000.74
2022-08-17T16:08:40.418Z,1000.85
2022-08-17T16:11:53.771Z,1000.89
2022-08-17T16:14:53.240Z,1000.76
2022-08-17T16:18:01.397Z,1000.75
2022-08-17T16:21:09.645Z,1000.58
2022-08-17T16:24:18.532Z,1000.59
2022-08-17T16:27:26.762Z,1000.66
2022-08-17T16:30:35.252Z,1000.61
2022-08-17T16:33:43.484Z,1000.58
2022-08-17T16:36:50.505Z,1000.56
2022-08-17T16:39:53.991Z,1000.54
2022-08-17T16:43:02.098Z,1000.53
2022-08-17T16:46:10.376Z,1000.54
2022-08-17T16:49:34.449Z,1000.52
2022-08-17T16:52:32.476Z,1000.57
2022-08-17T16:55:29.669Z,1000.59
2022-08-17T16:58:38.073Z,1000.74
2022-08-17T17:01:48.442Z,1000.68
2022-08-17T17:04:56.929Z,1000.69
2022-08-17T17:08:05.732Z,1000.72
2022-08-17T17:11:14.411Z,1000.74
2022-08-17T17:14:22.613Z,1000.80
2022-08-17T17:17:30.603Z,1000.85
2022-08-17T17:20:38.514Z,1000.73
2022-08-17T17:23:46.855Z,1000.79
2022-08-17T17:26:55.407Z,1000.76
2022-08-17T17:30:03.192Z,1000.85
2022-08-17T17:33:11.835Z,1000.78
2022-08-17T17:36:19.403Z,1000.80
2022-08-17T17:39:27.312Z,1000.82
2022-08-17T17:42:35.362Z,1000.96
2022-08-17T17:45:43.051Z,1001.04
2022-08-17T17:48:51.098Z,1001.07
2022-08-17T17:52:08.692Z,1001.00
2022-08-17T17:55:03.929Z,1001.07
2022-08-17T17:58:12.044Z,1001.17
2022-08-17T18:01:20.043Z,1001.12
2022-08-17T18:04:28.118Z,1001.13
2022-08-17T18:07:36.103Z,1001.16
2022-08-17T18:10:44.005Z,1001.21
2022-08-17T18:13:46.239Z,1001.31
2022-08-17T18:16:55.632Z,1001.36
2022-08-17T18:20:03.714Z,1001.31
2022-08-17T18:23:11.629Z,1001.34
2022-08-17T18:26:19.086Z,1001.37
2022-08-17T18:29:27.225Z,1001.46
2022-08-17T18:32:35.716Z,1001.51
2022-08-17T18:35:43.251Z,1001.60
2022-08-17T18:38:51.656Z,1001.52
2022-08-17T18:41:58.970Z,1001.53
2022-08-17T18:45:07.072Z,1001.45
2022-08-17T18:48:15.419Z,1001.55
2022-08-17T18:51:26.291Z,1001.55
2022-08-17T18:54:28.746Z,1001.48
2022-08-17T18:57:36.638Z,1001.55
2022-08-17T19:00:44.928Z,1001.55
2022-08-17T19:03:53.169Z,1001.60
2022-08-17T19:07:01.333Z,1001.71
2022-08-17T19:10:09.351Z,1001.67
2022-08-17T19:13:24.307Z,1001.62
2022-08-17T19:16:22.965Z,1001.63
2022-08-17T19:19:30.695Z,1001.60
2022-08-17T19:22:39.136Z,1001.54
2022-08-17T19:25:47.067Z,1001.57
2022-08-17T19:28:55.748Z,1001.50
2022-08-17T19:32:03.759Z,1001.46
2022-08-17T19:35:16.550Z,1001.49
2022-08-17T19:38:14.952Z,1001.51
2022-08-17T19:41:23.392Z,1001.45
2022-08-17T19:44:31.518Z,1001.39
2022-08-17T19:48:05.071Z,1001.42
2022-08-17T19:50:44.747Z,1001.45
2022-08-17T19:54:05.528Z,1001.42
2022-08-17T19:57:01.738Z,1001.47
2022-08-17T20:00:09.917Z,1001.50
2022-08-17T20:03:18.113Z,1001.56
2022-08-17T20:06:26.047Z,1001.58
2022-08-17T20:09:34.118Z,1001.60
2022-08-17T20:12:41.996Z,1001.65
2022-08-17T20:15:49.557Z,1001.61
2022-08-17T20:18:57.767Z,1001.59
2022-08-17T20:22:05.341Z,1001.66
2022-08-17T20:25:13.853Z,1001.62
2022-08-17T20:28:22.045Z,1001.63
2022-08-17T20:31:30.970Z,1001.64
2022-08-17T20:34:39.387Z,1001.60
2022-08-17T20:37:47.283Z,1001.60
2022-08-17T20:40:55.094Z,1001.63
2022-08-17T20:44:04.708Z,1001.62
2022-08-17T20:47:12.622Z,1001.61
2022-08-17T20:50:20.429Z,1001.63
2022-08-17T20:53:28.390Z,1001.60
2022-08-17T20:56:36.654Z,1001.69
2022-08-17T20:59:45.102Z,1001.76
2022-08-17T21:02:53.074Z,1001.76
2022-08-17T21:06:01.338Z,1001.74
2022-08-17T21:09:08.983Z,1001.69
2022-08-17T21:12:17.121Z,1001.76
2022-08-17T21:15:24.690Z,1001.80
2022-08-17T21:18:32.953Z,1001.76
2022-08-17T21:21:41.294Z,1001.85
2022-08-17T21:24:49.283Z,1001.72
2022-08-17T21:27:57.069Z,1001.72
2022-08-17T21:31:05.741Z,1001.73
2022-08-17T21:34:15.497Z,1001.73
2022-08-17T21:37:23.713Z,1001.78
2022-08-17T21:40:31.840Z,1001.75
2022-08-17T21:43:39.665Z,1001.80
2022-08-17T21:46:47.623Z,1001.79
2022-08-17T21:49:55.573Z,1001.76
2022-08-17T21:53:03.450Z,1001.80
2022-08-17T21:56:10.944Z,1001.80
2022-08-17T21:59:19.179Z,1001.80
2022-08-17T22:02:26.997Z,1001.78
2022-08-17T22:05:34.881Z,1001.70
2022-08-17T22:08:43.082Z,1001.73
2022-08-17T22:11:50.540Z,1001.81
2022-08-17T22:14:58.730Z,1001.82
2022-08-17T22:18:06.563Z,1001.81
2022-08-17T22:21:14.133Z,1001.76
2022-08-17T22:24:22.054Z,1001.78
2022-08-17T22:27:29.962Z,1001.77
2022-08-17T22:30:37.698Z,1001.77
2022-08-17T22:33:45.504Z,1001.80
2022-08-17T22:36:52.932Z,1001.86
2022-08-17T22:40:01.162Z,1001.95
2022-08-17T22:43:09.038Z,1002.03
2022-08-17T22:46:16.475Z,1001.99
2022-08-17T22:49:24.732Z,1002.00
2022-08-17T22:52:32.723Z,1002.10
2022-08-17T22:55:40.643Z,1002.04
2022-08-17T22:58:58.796Z,1002.08
2022-08-17T23:01:53.975Z,1002.00
2022-08-17T23:05:01.787Z,1002.09
2022-08-17T23:08:09.630Z,1002.06
2022-08-17T23:11:17.052Z,1002.07
2022-08-17T23:14:25.256Z,1002.12
2022-08-17T23:17:37.213Z,1002.23
2022-08-17T23:20:34.225Z,1002.24
2022-08-17T23:23:42.242Z,1002.23
2022-08-17T23:26:50.158Z,1002.26
2022-08-17T23:29:58.365Z,1002.28
2022-08-17T23:33:06.608Z,1002.22
2022-08-17T23:36:14.479Z,1002.18
2022-08-17T23:39:27.653Z,1002.10
2022-08-17T23:42:25.449Z,1002.07
2022-08-17T23:45:33.704Z,1002.13
2022-08-17T23:48:41.320Z,1002.16
2022-08-17T23:51:49.225Z,1002.12
2022-08-17T23:54:57.559Z,1002.10
2022-08-17T23:58:05.484Z,1002.02
